createdAt,value
2023-03-02T00:02:21.263Z,18.55
2023-03-02T00:04:52.891Z,19.77
2023-03-02T00:07:23.771Z,18.50
2023-03-02T00:09:50.747Z,23.65
2023-03-02T00:12:17.393Z,20.15
2023-03-02T00:14:44.252Z,16.75
2023-03-02T00:17:10.810Z,18.48
2023-03-02T00:19:37.696Z,19.55
2023-03-02T00:22:04.522Z,16.27
2023-03-02T00:24:31.274Z,16.58
2023-03-02T00:26:57.826Z,16.90
2023-03-02T00:29:24.509Z,17.85
2023-03-02T00:31:51.248Z,21.58
2023-03-02T00:34:18.003Z,17.08
2023-03-02T00:36:44.744Z,15.20
2023-03-02T00:39:11.322Z,17.70
2023-03-02T00:41:38.325Z,19.05
2023-03-02T00:44:04.954Z,18.65
2023-03-02T00:46:31.830Z,16.73
2023-03-02T00:48:59.032Z,17.08
2023-03-02T00:51:25.602Z,16.60
2023-03-02T00:53:52.160Z,19.27
2023-03-02T00:56:18.737Z,17.38
2023-03-02T00:58:49.545Z,18.38
2023-03-02T01:01:18.571Z,16.85
2023-03-02T01:03:48.627Z,22.38
2023-03-02T01:06:18.201Z,20.15
2023-03-02T01:08:45.205Z,22.20
2023-03-02T01:11:17.054Z,19.58
2023-03-02T01:13:44.055Z,21.48
2023-03-02T01:16:11.853Z,16.92
2023-03-02T01:18:39.932Z,19.40
2023-03-02T01:21:09.456Z,17.85
2023-03-02T01:23:36.028Z,16.02
2023-03-02T01:26:02.697Z,18.17
2023-03-02T01:28:29.250Z,17.88
2023-03-02T01:30:55.815Z,21.10
2023-03-02T01:33:23.090Z,16.58
2023-03-02T01:35:49.692Z,22.40
2023-03-02T01:38:16.586Z,18.48
2023-03-02T01:40:43.139Z,18.13
2023-03-02T01:43:13.631Z,21.60
2023-03-02T01:45:59.718Z,22.95
2023-03-02T01:48:45.134Z,20.10
2023-03-02T01:51:18.164Z,23.10
2023-03-02T01:53:46.863Z,18.95
2023-03-02T01:56:16.172Z,18.23
2023-03-02T01:58:43.015Z,16.60
2023-03-02T02:01:15.925Z,14.02
2023-03-02T02:03:48.621Z,18.38
2023-03-02T02:06:26.897Z,21.83
2023-03-02T02:08:55.020Z,23.40
2023-03-02T02:11:21.705Z,18.30
2023-03-02T02:13:54.182Z,16.92
2023-03-02T02:16:20.898Z,21.63
2023-03-02T02:18:47.572Z,22.45
2023-03-02T02:21:14.401Z,20.08
2023-03-02T02:23:49.858Z,20.77
2023-03-02T02:26:23.530Z,20.42
2023-03-02T02:29:07.825Z,20.88
2023-03-02T02:31:37.533Z,16.83
2023-03-02T02:34:11.154Z,17.77
2023-03-02T02:36:40.799Z,21.55
2023-03-02T02:39:18.569Z,18.45
2023-03-02T02:41:46.210Z,18.23
2023-03-02T02:44:15.744Z,21.48
2023-03-02T02:46:42.866Z,20.40
2023-03-02T02:49:19.998Z,18.45
2023-03-02T02:51:46.561Z,20.02
2023-03-02T02:54:17.597Z,22.10
2023-03-02T02:56:46.972Z,20.60
2023-03-02T02:59:17.455Z,21.20
2023-03-02T03:01:45.860Z,19.25
2023-03-02T03:04:17.186Z,22.20
2023-03-02T03:09:24.821Z,18.00
2023-03-02T03:12:03.242Z,19.33
2023-03-02T03:14:40.574Z,24.75
2023-03-02T03:17:12.353Z,18.55
2023-03-02T03:19:45.480Z,19.00
2023-03-02T03:22:14.593Z,17.88
2023-03-02T03:24:42.560Z,18.25
2023-03-02T03:27:11.107Z,19.65
2023-03-02T03:29:42.508Z,19.50
2023-03-02T03:32:11.470Z,22.08
2023-03-02T03:34:40.639Z,19.55
2023-03-02T03:37:17.593Z,19.23
2023-03-02T03:39:44.930Z,15.40
2023-03-02T03:42:12.688Z,19.40
2023-03-02T03:44:39.273Z,18.00
2023-03-02T03:47:06.091Z,17.40
2023-03-02T03:49:36.799Z,22.50
2023-03-02T03:52:05.424Z,19.20
2023-03-02T03:54:32.270Z,21.60
2023-03-02T03:56:59.246Z,20.15
2023-03-02T03:59:26.211Z,19.30
2023-03-02T04:02:00.384Z,17.80
2023-03-02T04:04:35.225Z,15.30
2023-03-02T04:07:09.696Z,17.17
2023-03-02T04:09:40.156Z,15.02
2023-03-02T04:12:11.717Z,21.13
2023-03-02T04:14:41.686Z,18.27
2023-03-02T04:17:08.248Z,17.02
2023-03-02T04:19:39.112Z,18.63
2023-03-02T04:22:06.136Z,17.08
2023-03-02T04:24:33.382Z,18.73
2023-03-02T04:27:02.269Z,17.10
2023-03-02T04:29:29.367Z,17.38
2023-03-02T04:31:56.119Z,16.10
2023-03-02T04:34:26.423Z,18.75
2023-03-02T04:36:53.718Z,17.33
2023-03-02T04:39:20.899Z,21.27
2023-03-02T04:41:50.668Z,19.85
2023-03-02T04:44:18.181Z,23.50
2023-03-02T04:46:45.409Z,17.67
2023-03-02T04:49:13.868Z,17.25
2023-03-02T04:51:42.692Z,18.30
2023-03-02T04:54:18.720Z,17.85
2023-03-02T04:56:48.486Z,15.23
2023-03-02T04:59:16.716Z,16.85
2023-03-02T05:01:44.440Z,20.92
2023-03-02T05:04:11.793Z,16.88
2023-03-02T05:06:38.606Z,16.08
2023-03-02T05:09:05.477Z,19.60
2023-03-02T05:11:32.855Z,18.08
2023-03-02T05:14:02.082Z,13.80
2023-03-02T05:16:32.381Z,19.15
2023-03-02T05:19:00.010Z,20.70
2023-03-02T05:21:26.843Z,14.70
2023-03-02T05:23:54.335Z,22.15
2023-03-02T05:26:20.939Z,22.60
2023-03-02T05:28:47.652Z,17.08
2023-03-02T05:31:28.386Z,17.08
2023-03-02T05:33:54.931Z,16.00
2023-03-02T05:36:23.246Z,17.23
2023-03-02T05:38:50.007Z,15.48
2023-03-02T05:41:16.659Z,13.20
2023-03-02T05:43:43.442Z,16.73
2023-03-02T05:46:10.328Z,15.93
2023-03-02T05:48:37.300Z,15.10
2023-03-02T05:51:04.602Z,15.75
2023-03-02T05:53:31.563Z,14.55
2023-03-02T05:55:58.163Z,16.20
2023-03-02T05:58:25.003Z,13.93
2023-03-02T06:00:51.760Z,18.30
2023-03-02T06:03:18.466Z,15.77
2023-03-02T06:05:45.180Z,15.43
2023-03-02T06:08:11.712Z,18.40
2023-03-02T06:10:38.556Z,15.52
2023-03-02T06:13:05.564Z,16.65
2023-03-02T06:15:32.264Z,16.75
2023-03-02T06:17:59.033Z,17.67
2023-03-02T06:20:30.168Z,19.73
2023-03-02T06:22:56.675Z,17.35
2023-03-02T06:25:24.176Z,15.57
2023-03-02T06:27:51.728Z,19.98
2023-03-02T06:30:21.723Z,17.80
2023-03-02T06:32:48.322Z,12.38
2023-03-02T06:35:15.068Z,17.95
2023-03-02T06:37:44.045Z,18.27
2023-03-02T06:40:13.670Z,15.85
2023-03-02T06:42:41.319Z,20.23
2023-03-02T06:45:09.311Z,16.60
2023-03-02T06:47:35.892Z,16.85
2023-03-02T06:50:03.863Z,16.50
2023-03-02T06:52:30.681Z,19.35
2023-03-02T06:54:57.249Z,17.75
2023-03-02T06:57:23.940Z,17.90
2023-03-02T06:59:50.581Z,19.73
2023-03-02T07:02:17.093Z,17.38
2023-03-02T07:04:43.632Z,16.13
2023-03-02T07:07:10.143Z,22.65
2023-03-02T07:09:37.069Z,23.65
2023-03-02T07:12:03.873Z,15.50
2023-03-02T07:14:30.669Z,21.38
2023-03-02T07:16:57.538Z,15.80
2023-03-02T07:19:24.242Z,16.83
2023-03-02T07:21:50.781Z,18.13
2023-03-02T07:24:17.426Z,16.02
2023-03-02T07:26:44.001Z,16.42
2023-03-02T07:29:10.622Z,18.75
2023-03-02T07:31:37.162Z,17.48
2023-03-02T07:34:03.760Z,22.38
2023-03-02T07:36:30.339Z,17.27
2023-03-02T07:38:57.522Z,18.30
2023-03-02T07:41:24.251Z,14.77
2023-03-02T07:43:50.845Z,18.75
2023-03-02T07:46:17.463Z,17.98
2023-03-02T07:48:50.039Z,16.30
2023-03-02T07:51:19.964Z,17.92
2023-03-02T07:53:46.480Z,16.15
2023-03-02T07:56:13.001Z,14.98
2023-03-02T07:58:39.516Z,19.40
2023-03-02T08:01:06.237Z,20.15
2023-03-02T08:03:32.797Z,19.60
2023-03-02T08:05:59.328Z,17.50
2023-03-02T08:08:25.839Z,18.15
2023-03-02T08:10:52.449Z,14.05
2023-03-02T08:13:18.927Z,17.48
2023-03-02T08:15:45.450Z,14.95
2023-03-02T08:18:12.071Z,21.48
2023-03-02T08:20:38.752Z,13.88
2023-03-02T08:23:05.361Z,17.73
2023-03-02T08:25:31.952Z,16.02
2023-03-02T08:27:58.485Z,19.48
2023-03-02T08:30:25.378Z,16.30
2023-03-02T08:32:52.078Z,19.45
2023-03-02T08:35:18.607Z,14.93
2023-03-02T08:37:45.219Z,17.40
2023-03-02T08:40:12.128Z,17.45
2023-03-02T08:42:38.615Z,17.88
2023-03-02T08:45:05.685Z,22.25
2023-03-02T08:47:32.582Z,15.10
2023-03-02T08:49:59.240Z,18.55
2023-03-02T08:52:25.786Z,15.80
2023-03-02T08:54:52.493Z,16.20
2023-03-02T08:57:21.223Z,15.23
2023-03-02T08:59:48.108Z,13.45
2023-03-02T09:02:14.911Z,15.30
2023-03-02T09:04:41.606Z,19.83
2023-03-02T09:07:08.855Z,14.82
2023-03-02T09:09:35.736Z,14.38
2023-03-02T09:12:02.459Z,20.80
2023-03-02T09:14:29.025Z,20.27
2023-03-02T09:16:55.726Z,18.67
2023-03-02T09:19:22.332Z,17.95
2023-03-02T09:21:49.439Z,19.05
2023-03-02T09:24:16.335Z,30.58
2023-03-02T09:26:42.981Z,15.70
2023-03-02T09:29:09.698Z,19.85
2023-03-02T09:31:37.494Z,17.13
2023-03-02T09:34:04.781Z,18.65
2023-03-02T09:36:32.688Z,14.88
2023-03-02T09:38:59.538Z,13.73
2023-03-02T09:41:57.054Z,16.50
2023-03-02T09:44:33.939Z,18.92
2023-03-02T09:47:04.247Z,19.55
2023-03-02T09:49:58.277Z,18.53
2023-03-02T09:52:32.513Z,25.23
2023-03-02T09:55:16.173Z,21.73
2023-03-02T09:57:43.184Z,18.13
2023-03-02T10:00:19.874Z,20.27
2023-03-02T10:02:50.208Z,16.70
2023-03-02T10:05:24.564Z,16.38
2023-03-02T10:07:51.400Z,14.00
2023-03-02T10:10:27.315Z,22.25
2023-03-02T10:13:28.087Z,16.17
2023-03-02T10:16:19.243Z,18.42
2023-03-02T10:18:49.841Z,16.10
2023-03-02T10:21:27.865Z,17.17
2023-03-02T10:24:01.303Z,15.93
2023-03-02T10:26:36.990Z,14.43
2023-03-02T10:29:17.357Z,19.60
2023-03-02T10:31:45.995Z,21.83
2023-03-02T10:34:13.604Z,19.65
2023-03-02T10:36:44.715Z,16.98
2023-03-02T10:39:13.965Z,17.10
2023-03-02T10:41:45.676Z,17.48
2023-03-02T10:44:37.498Z,17.60
2023-03-02T10:47:05.453Z,18.33
2023-03-02T10:49:34.165Z,15.10
2023-03-02T10:52:05.153Z,20.35
2023-03-02T10:54:34.305Z,16.02
2023-03-02T10:57:03.962Z,18.90
2023-03-02T10:59:49.648Z,14.77
2023-03-02T11:02:25.119Z,16.75
2023-03-02T11:05:18.990Z,15.38
2023-03-02T11:07:53.718Z,17.65
2023-03-02T11:10:23.652Z,17.63
2023-03-02T11:12:52.875Z,22.75
2023-03-02T11:15:25.718Z,16.52
2023-03-02T11:18:04.194Z,17.83
2023-03-02T11:20:34.215Z,19.30
2023-03-02T11:23:10.424Z,18.17
2023-03-02T11:25:39.533Z,15.30
2023-03-02T11:28:41.773Z,16.20
2023-03-02T11:31:15.666Z,16.60
2023-03-02T11:33:51.944Z,14.93
2023-03-02T11:36:21.166Z,16.88
2023-03-02T11:38:50.636Z,17.50
2023-03-02T11:41:33.133Z,17.05
2023-03-02T11:44:02.158Z,13.48
2023-03-02T11:46:33.270Z,14.38
2023-03-02T11:49:07.761Z,21.52
2023-03-02T11:51:39.119Z,15.23
2023-03-02T11:54:41.304Z,13.13
2023-03-02T11:57:25.272Z,15.35
2023-03-02T11:59:52.672Z,23.70
2023-03-02T12:02:19.921Z,12.45
2023-03-02T12:04:47.830Z,12.60
2023-03-02T12:07:19.084Z,16.75
2023-03-02T12:12:33.671Z,15.23
2023-03-02T12:15:01.502Z,13.80
2023-03-02T12:17:28.015Z,15.00
2023-03-02T12:20:21.704Z,15.05
2023-03-02T12:22:48.267Z,13.93
2023-03-02T12:25:23.518Z,14.68
2023-03-02T12:27:53.003Z,12.35
2023-03-02T12:30:26.163Z,16.05
2023-03-02T12:33:11.225Z,13.55
2023-03-02T12:35:38.517Z,15.05
2023-03-02T12:38:08.175Z,15.73
2023-03-02T12:40:59.562Z,14.00
2023-03-02T12:43:26.857Z,14.60
2023-03-02T12:46:25.318Z,15.90
2023-03-02T12:49:27.207Z,18.10
2023-03-02T12:51:58.140Z,23.33
2023-03-02T12:54:35.013Z,15.68
2023-03-02T12:57:09.276Z,17.25
2023-03-02T12:59:36.292Z,14.05
2023-03-02T13:02:24.886Z,13.88
2023-03-02T13:04:54.430Z,16.45
2023-03-02T13:07:25.430Z,16.20
2023-03-02T13:09:56.622Z,14.68
2023-03-02T13:12:26.659Z,14.73
2023-03-02T13:14:57.463Z,15.98
2023-03-02T13:17:29.509Z,14.93
2023-03-02T13:19:57.051Z,17.77
2023-03-02T13:22:23.811Z,14.63
2023-03-02T13:24:57.721Z,16.33
2023-03-02T13:27:25.281Z,13.70
2023-03-02T13:29:52.812Z,13.93
2023-03-02T13:32:36.077Z,12.60
2023-03-02T13:35:03.798Z,12.65
2023-03-02T13:37:44.129Z,15.20
2023-03-02T13:40:23.170Z,13.98
2023-03-02T13:42:49.759Z,20.02
2023-03-02T13:45:32.530Z,18.35
2023-03-02T13:48:00.484Z,14.35
2023-03-02T13:50:29.224Z,16.15
2023-03-02T13:52:57.928Z,15.88
2023-03-02T13:55:24.868Z,9.57
2023-03-02T13:57:52.279Z,13.77
2023-03-02T14:00:26.926Z,15.32
2023-03-02T14:02:53.524Z,13.90
2023-03-02T14:05:26.602Z,14.57
2023-03-02T14:07:53.614Z,13.13
2023-03-02T14:10:20.528Z,18.65
2023-03-02T14:12:54.140Z,13.55
2023-03-02T14:15:21.179Z,14.73
2023-03-02T14:17:49.473Z,15.35
2023-03-02T14:20:19.457Z,13.43
2023-03-02T14:22:47.048Z,10.55
2023-03-02T14:25:14.017Z,10.10
2023-03-02T14:27:41.498Z,13.98
2023-03-02T14:30:19.468Z,13.10
2023-03-02T14:32:46.411Z,11.40
2023-03-02T14:35:16.262Z,11.32
2023-03-02T14:37:47.582Z,12.15
2023-03-02T14:40:17.634Z,11.00
2023-03-02T14:42:44.356Z,8.90
2023-03-02T14:45:11.933Z,14.00
2023-03-02T14:47:38.523Z,9.43
2023-03-02T14:50:05.454Z,10.48
2023-03-02T14:52:35.274Z,12.02
2023-03-02T14:55:05.892Z,13.32
2023-03-02T14:57:36.299Z,11.13
2023-03-02T15:00:06.101Z,15.00
2023-03-02T15:02:32.910Z,15.35
2023-03-02T15:04:59.537Z,16.08
2023-03-02T15:07:27.772Z,13.05
2023-03-02T15:09:56.068Z,17.00
2023-03-02T15:12:22.605Z,13.55
2023-03-02T15:14:49.361Z,10.63
2023-03-02T15:17:15.982Z,13.57
2023-03-02T15:19:42.712Z,18.45
2023-03-02T15:22:09.664Z,16.48
2023-03-02T15:24:36.844Z,18.95
2023-03-02T15:27:03.811Z,13.20
2023-03-02T15:29:34.044Z,13.27
2023-03-02T15:32:01.201Z,21.13
2023-03-02T15:34:30.545Z,20.27
2023-03-02T15:36:57.258Z,23.80
2023-03-02T15:39:30.384Z,23.42
2023-03-02T15:41:57.498Z,28.30
2023-03-02T15:44:28.272Z,24.35
2023-03-02T15:49:25.029Z,19.13
2023-03-02T15:51:52.844Z,19.85
2023-03-02T15:54:19.952Z,17.73
2023-03-02T15:56:51.933Z,17.42
2023-03-02T15:59:26.961Z,14.13
2023-03-02T16:01:53.915Z,20.40
2023-03-02T16:04:20.490Z,22.02
2023-03-02T16:06:47.079Z,18.42
2023-03-02T16:09:13.895Z,23.58
2023-03-02T16:11:40.441Z,16.70
2023-03-02T16:14:06.941Z,26.25
2023-03-02T16:16:33.591Z,20.77
2023-03-02T16:19:00.160Z,19.27
2023-03-02T16:21:28.935Z,18.20
2023-03-02T16:24:02.810Z,23.65
2023-03-02T16:26:29.409Z,19.27
2023-03-02T16:28:55.951Z,22.15
2023-03-02T16:31:26.454Z,15.45
2023-03-02T16:33:54.970Z,20.25
2023-03-02T16:36:22.428Z,15.60
2023-03-02T16:38:49.089Z,14.82
2023-03-02T16:41:23.898Z,15.65
2023-03-02T16:43:54.159Z,20.98
2023-03-02T16:46:21.805Z,17.90
2023-03-02T16:48:49.109Z,18.63
2023-03-02T16:51:16.823Z,19.52
2023-03-02T16:53:43.736Z,18.30
2023-03-02T16:56:10.868Z,20.83
2023-03-02T16:58:39.581Z,18.85
2023-03-02T17:01:08.081Z,23.77
2023-03-02T17:03:35.263Z,22.55
2023-03-02T17:06:02.169Z,28.40
2023-03-02T17:08:28.876Z,20.55
2023-03-02T17:10:55.379Z,19.33
2023-03-02T17:13:21.939Z,21.85
2023-03-02T17:15:48.492Z,23.63
2023-03-02T17:18:15.202Z,20.55
2023-03-02T17:20:41.718Z,24.33
2023-03-02T17:23:08.415Z,22.25
2023-03-02T17:25:34.964Z,21.13
2023-03-02T17:28:01.527Z,20.88
2023-03-02T17:30:28.207Z,24.98
2023-03-02T17:32:54.808Z,26.33
2023-03-02T17:35:21.505Z,22.48
2023-03-02T17:37:48.275Z,19.30
2023-03-02T17:40:16.056Z,20.60
2023-03-02T17:42:42.905Z,21.05
2023-03-02T17:45:16.492Z,19.98
2023-03-02T17:47:43.274Z,18.48
2023-03-02T17:50:10.685Z,18.33
2023-03-02T17:52:37.180Z,26.83
2023-03-02T17:55:04.458Z,23.58
2023-03-02T17:57:31.033Z,20.65
2023-03-02T17:59:57.546Z,23.33
2023-03-02T18:02:24.101Z,19.95
2023-03-02T18:04:51.053Z,21.90
2023-03-02T18:07:17.622Z,23.00
2023-03-02T18:09:44.152Z,19.23
2023-03-02T18:12:10.653Z,22.35
2023-03-02T18:14:37.696Z,22.23
2023-03-02T18:17:07.413Z,25.65
2023-03-02T18:19:33.944Z,21.83
2023-03-02T18:24:47.403Z,25.02
2023-03-02T18:27:14.000Z,27.63
2023-03-02T18:29:40.561Z,28.98
2023-03-02T18:32:07.199Z,26.55
2023-03-02T18:34:33.966Z,31.88
2023-03-02T18:37:00.556Z,33.80
2023-03-02T18:39:27.171Z,31.77
2023-03-02T18:41:53.696Z,33.25
2023-03-02T18:44:20.611Z,37.42
2023-03-02T18:46:47.285Z,34.53
2023-03-02T18:49:14.056Z,37.42
2023-03-02T18:51:41.053Z,35.80
2023-03-02T18:54:07.970Z,36.97
2023-03-02T18:56:34.682Z,40.97
2023-03-02T18:59:01.901Z,42.38
2023-03-02T19:01:31.490Z,34.30
2023-03-02T19:03:59.164Z,40.67
2023-03-02T19:06:25.698Z,39.55
2023-03-02T19:08:52.232Z,40.67
2023-03-02T19:11:18.849Z,32.92
2023-03-02T19:13:45.423Z,38.00
2023-03-02T19:16:12.109Z,38.58
2023-03-02T19:18:39.023Z,35.85
2023-03-02T19:21:06.483Z,43.83
2023-03-02T19:23:33.103Z,40.63
2023-03-02T19:25:59.812Z,42.03
2023-03-02T19:28:27.436Z,37.25
2023-03-02T19:30:54.018Z,43.25
2023-03-02T19:33:20.553Z,44.22
2023-03-02T19:35:47.112Z,41.88
2023-03-02T19:38:14.428Z,38.45
2023-03-02T19:40:40.938Z,40.75
2023-03-02T19:43:07.770Z,41.15
2023-03-02T19:45:35.557Z,40.30
2023-03-02T19:48:03.494Z,36.42
2023-03-02T19:50:30.704Z,39.90
2023-03-02T19:52:58.637Z,43.50
2023-03-02T19:55:25.915Z,46.55
2023-03-02T19:57:56.434Z,38.45
2023-03-02T20:00:23.694Z,44.50
2023-03-02T20:02:50.238Z,48.13
2023-03-02T20:05:16.803Z,43.55
2023-03-02T20:07:43.328Z,41.42
2023-03-02T20:10:10.860Z,49.10
2023-03-02T20:12:37.482Z,47.55
2023-03-02T20:15:05.750Z,45.90
2023-03-02T20:17:32.448Z,46.72
2023-03-02T20:20:01.434Z,46.05
2023-03-02T20:22:27.971Z,49.50
2023-03-02T20:24:54.576Z,52.35
2023-03-02T20:27:21.181Z,47.13
2023-03-02T20:29:48.281Z,50.60
2023-03-02T20:32:14.987Z,49.22
2023-03-02T20:34:42.784Z,46.72
2023-03-02T20:37:10.375Z,45.53
2023-03-02T20:39:39.108Z,52.88
2023-03-02T20:42:06.717Z,54.55
2023-03-02T20:44:34.051Z,53.10
2023-03-02T20:47:03.417Z,55.30
2023-03-02T20:49:30.975Z,52.25
2023-03-02T20:51:59.437Z,53.47
2023-03-02T20:54:32.435Z,57.15
2023-03-02T20:56:59.452Z,56.90
2023-03-02T20:59:26.514Z,54.38
2023-03-02T21:01:53.343Z,54.58
2023-03-02T21:04:20.289Z,55.35
2023-03-02T21:06:46.971Z,64.60
2023-03-02T21:09:13.860Z,60.90
2023-03-02T21:11:40.857Z,66.65
2023-03-02T21:14:07.612Z,72.97
2023-03-02T21:16:38.681Z,61.67
2023-03-02T21:19:08.555Z,70.25
2023-03-02T21:21:41.889Z,65.85
2023-03-02T21:24:11.232Z,70.28
2023-03-02T21:26:38.734Z,67.53
2023-03-02T21:29:06.189Z,66.57
2023-03-02T21:31:32.906Z,67.30
2023-03-02T21:34:00.962Z,68.47
2023-03-02T21:36:28.106Z,70.47
2023-03-02T21:39:14.800Z,74.55
2023-03-02T21:42:10.580Z,75.78
2023-03-02T21:44:37.274Z,71.78
2023-03-02T21:47:03.863Z,76.85
2023-03-02T21:49:31.807Z,78.35
2023-03-02T21:51:58.353Z,74.32
2023-03-02T21:54:24.901Z,80.40
2023-03-02T21:56:51.443Z,81.28
2023-03-02T21:59:18.115Z,77.82
2023-03-02T22:01:44.686Z,77.65
2023-03-02T22:04:11.645Z,80.65
2023-03-02T22:06:38.972Z,83.95
2023-03-02T22:09:05.600Z,86.97
2023-03-02T22:11:35.811Z,88.72
2023-03-02T22:14:17.516Z,87.70
2023-03-02T22:16:47.192Z,93.55
2023-03-02T22:19:25.576Z,81.47
2023-03-02T22:21:55.353Z,85.07
2023-03-02T22:24:27.405Z,88.05
2023-03-02T22:26:58.970Z,97.20
2023-03-02T22:29:28.604Z,86.18
2023-03-02T22:31:57.127Z,92.38
2023-03-02T22:34:28.603Z,95.40
2023-03-02T22:37:00.243Z,90.07
2023-03-02T22:39:31.768Z,92.05
2023-03-02T22:42:10.878Z,91.93
2023-03-02T22:44:37.960Z,96.13
2023-03-02T22:47:19.314Z,97.18
2023-03-02T22:49:47.253Z,95.60
2023-03-02T22:52:22.999Z,105.00
2023-03-02T22:54:49.778Z,102.38
2023-03-02T22:57:30.073Z,101.18
2023-03-02T23:00:23.011Z,97.43
2023-03-02T23:02:50.328Z,114.20
2023-03-02T23:05:26.803Z,105.25
2023-03-02T23:07:59.698Z,114.30
2023-03-02T23:10:26.337Z,117.32
2023-03-02T23:12:53.074Z,112.70
2023-03-02T23:15:20.484Z,114.57
2023-03-02T23:17:47.079Z,115.82
2023-03-02T23:20:15.781Z,117.85
2023-03-02T23:22:43.219Z,117.05
2023-03-02T23:25:09.959Z,116.60
2023-03-02T23:27:36.467Z,122.88
2023-03-02T23:30:04.125Z,126.60
2023-03-02T23:32:30.730Z,143.90
2023-03-02T23:34:57.262Z,129.65
2023-03-02T23:37:23.844Z,138.70
2023-03-02T23:39:50.387Z,147.23
2023-03-02T23:42:16.886Z,136.20
2023-03-02T23:44:43.376Z,132.45
2023-03-02T23:47:10.016Z,143.15
2023-03-02T23:49:36.518Z,144.40
2023-03-02T23:52:03.524Z,131.35
2023-03-02T23:54:30.045Z,142.00
2023-03-02T23:56:56.516Z,139.40
2023-03-02T23:59:23.391Z,134.88
